sensor_id;sensor_type;location;lat;lon;timestamp;P1;durP1;ratioP1;P2;durP2;ratioP2
75435;SDS011;64014;53.432;14.534;2023-04-15T00:00:29;23.63;;;15.43;;
75435;SDS011;64014;53.432;14.534;2023-04-15T00:02:55;21.70;;;14.00;;
75435;SDS011;64014;53.432;14.534;2023-04-15T00:05:21;21.83;;;14.30;;
75435;SDS011;64014;53.432;14.534;2023-04-15T00:07:47;22.95;;;14.52;;
75435;SDS011;64014;53.432;14.534;2023-04-15T00:10:13;20.23;;;14.18;;
75435;SDS011;64014;53.432;14.534;2023-04-15T00:12:40;20.25;;;13.32;;
75435;SDS011;64014;53.432;14.534;2023-04-15T00:15:07;20.83;;;12.95;;
75435;SDS011;64014;53.432;14.534;2023-04-15T00:17:33;18.77;;;12.77;;
75435;SDS011;64014;53.432;14.534;2023-04-15T00:20:00;20.95;;;14.20;;
75435;SDS011;64014;53.432;14.534;2023-04-15T00:22:26;20.02;;;12.82;;
75435;SDS011;64014;53.432;14.534;2023-04-15T00:24:52;20.92;;;13.55;;
75435;SDS011;64014;53.432;14.534;2023-04-15T00:27:18;19.95;;;14.05;;
75435;SDS011;64014;53.432;14.534;2023-04-15T00:29:45;21.67;;;14.05;;
75435;SDS011;64014;53.432;14.534;2023-04-15T00:32:11;20.85;;;13.50;;
75435;SDS011;64014;53.432;14.534;2023-04-15T00:34:38;19.90;;;13.43;;
75435;SDS011;64014;53.432;14.534;2023-04-15T00:37:04;18.10;;;12.25;;
75435;SDS011;64014;53.432;14.534;2023-04-15T00:39:30;20.92;;;12.70;;
75435;SDS011;64014;53.432;14.534;2023-04-15T00:41:57;20.23;;;13.23;;
75435;SDS011;64014;53.432;14.534;2023-04-15T00:44:23;19.63;;;13.52;;
75435;SDS011;64014;53.432;14.534;2023-04-15T00:46:50;18.88;;;13.02;;
75435;SDS011;64014;53.432;14.534;2023-04-15T00:49:17;19.02;;;10.85;;
75435;SDS011;64014;53.432;14.534;2023-04-15T00:51:43;20.17;;;13.50;;
75435;SDS011;64014;53.432;14.534;2023-04-15T00:54:09;24.90;;;13.57;;
75435;SDS011;64014;53.432;14.534;2023-04-15T00:56:36;19.33;;;12.88;;
75435;SDS011;64014;53.432;14.534;2023-04-15T00:59:03;22.17;;;12.45;;
75435;SDS011;64014;53.432;14.534;2023-04-15T01:01:34;22.08;;;13.73;;
75435;SDS011;64014;53.432;14.534;2023-04-15T01:04:00;18.00;;;11.65;;
75435;SDS011;64014;53.432;14.534;2023-04-15T01:06:27;23.27;;;13.35;;
75435;SDS011;64014;53.432;14.534;2023-04-15T01:08:54;20.30;;;12.88;;
75435;SDS011;64014;53.432;14.534;2023-04-15T01:11:20;19.83;;;13.65;;
75435;SDS011;64014;53.432;14.534;2023-04-15T01:13:46;19.15;;;12.75;;
75435;SDS011;64014;53.432;14.534;2023-04-15T01:16:13;18.15;;;11.70;;
75435;SDS011;64014;53.432;14.534;2023-04-15T01:18:39;17.30;;;11.32;;
75435;SDS011;64014;53.432;14.534;2023-04-15T01:21:06;17.60;;;11.65;;
75435;SDS011;64014;53.432;14.534;2023-04-15T01:23:34;15.95;;;10.23;;
75435;SDS011;64014;53.432;14.534;2023-04-15T01:26:03;15.50;;;8.82;;
75435;SDS011;64014;53.432;14.534;2023-04-15T01:28:30;16.33;;;11.60;;
75435;SDS011;64014;53.432;14.534;2023-04-15T01:31:15;17.63;;;11.10;;
75435;SDS011;64014;53.432;14.534;2023-04-15T01:33:41;14.82;;;11.52;;
75435;SDS011;64014;53.432;14.534;2023-04-15T01:36:08;19.20;;;10.98;;
75435;SDS011;64014;53.432;14.534;2023-04-15T01:38:35;18.80;;;12.23;;
75435;SDS011;64014;53.432;14.534;2023-04-15T01:41:02;17.08;;;9.55;;
75435;SDS011;64014;53.432;14.534;2023-04-15T01:43:29;17.58;;;12.13;;
75435;SDS011;64014;53.432;14.534;2023-04-15T01:45:55;18.52;;;11.93;;
75435;SDS011;64014;53.432;14.534;2023-04-15T01:48:21;19.42;;;11.45;;
75435;SDS011;64014;53.432;14.534;2023-04-15T01:50:48;18.02;;;12.45;;
75435;SDS011;64014;53.432;14.534;2023-04-15T01:53:14;17.80;;;13.05;;
75435;SDS011;64014;53.432;14.534;2023-04-15T01:55:40;20.48;;;14.10;;
75435;SDS011;64014;53.432;14.534;2023-04-15T01:58:07;20.25;;;13.25;;
75435;SDS011;64014;53.432;14.534;2023-04-15T02:00:33;20.90;;;13.73;;
75435;SDS011;64014;53.432;14.534;2023-04-15T02:02:59;22.40;;;12.55;;
75435;SDS011;64014;53.432;14.534;2023-04-15T02:05:25;20.95;;;14.05;;
75435;SDS011;64014;53.432;14.534;2023-04-15T02:07:51;23.13;;;14.43;;
75435;SDS011;64014;53.432;14.534;2023-04-15T02:10:18;20.98;;;13.77;;
75435;SDS011;64014;53.432;14.534;2023-04-15T02:12:44;23.02;;;14.77;;
75435;SDS011;64014;53.432;14.534;2023-04-15T02:15:10;22.98;;;14.85;;
75435;SDS011;64014;53.432;14.534;2023-04-15T02:17:37;22.08;;;14.18;;
75435;SDS011;64014;53.432;14.534;2023-04-15T02:20:03;20.00;;;13.40;;
75435;SDS011;64014;53.432;14.534;2023-04-15T02:22:32;20.42;;;13.93;;
75435;SDS011;64014;53.432;14.534;2023-04-15T02:24:59;18.45;;;13.60;;
75435;SDS011;64014;53.432;14.534;2023-04-15T02:27:25;19.80;;;13.25;;
75435;SDS011;64014;53.432;14.534;2023-04-15T02:29:52;19.10;;;14.00;;
75435;SDS011;64014;53.432;14.534;2023-04-15T02:32:19;20.20;;;14.10;;
75435;SDS011;64014;53.432;14.534;2023-04-15T02:34:47;19.40;;;14.07;;
75435;SDS011;64014;53.432;14.534;2023-04-15T02:37:13;19.35;;;14.77;;
75435;SDS011;64014;53.432;14.534;2023-04-15T02:39:40;21.83;;;14.10;;
75435;SDS011;64014;53.432;14.534;2023-04-15T02:42:06;20.52;;;14.40;;
75435;SDS011;64014;53.432;14.534;2023-04-15T02:44:32;19.23;;;14.05;;
75435;SDS011;64014;53.432;14.534;2023-04-15T02:47:00;18.20;;;13.60;;
75435;SDS011;64014;53.432;14.534;2023-04-15T02:49:27;19.60;;;14.10;;
75435;SDS011;64014;53.432;14.534;2023-04-15T02:51:55;21.52;;;13.93;;
75435;SDS011;64014;53.432;14.534;2023-04-15T02:54:22;20.45;;;13.45;;
75435;SDS011;64014;53.432;14.534;2023-04-15T02:56:48;19.50;;;13.80;;
75435;SDS011;64014;53.432;14.534;2023-04-15T02:59:15;18.35;;;13.32;;
75435;SDS011;64014;53.432;14.534;2023-04-15T03:04:45;18.42;;;14.20;;
75435;SDS011;64014;53.432;14.534;2023-04-15T03:07:11;17.80;;;12.57;;
75435;SDS011;64014;53.432;14.534;2023-04-15T03:09:37;21.02;;;13.57;;
75435;SDS011;64014;53.432;14.534;2023-04-15T03:12:05;20.55;;;13.27;;
75435;SDS011;64014;53.432;14.534;2023-04-15T03:14:31;19.55;;;13.65;;
75435;SDS011;64014;53.432;14.534;2023-04-15T03:16:57;19.30;;;14.65;;
75435;SDS011;64014;53.432;14.534;2023-04-15T03:19:24;21.13;;;14.63;;
75435;SDS011;64014;53.432;14.534;2023-04-15T03:21:50;22.55;;;15.30;;
75435;SDS011;64014;53.432;14.534;2023-04-15T03:24:16;19.02;;;14.35;;
75435;SDS011;64014;53.432;14.534;2023-04-15T03:26:42;17.92;;;12.90;;
75435;SDS011;64014;53.432;14.534;2023-04-15T03:29:09;21.15;;;13.55;;
75435;SDS011;64014;53.432;14.534;2023-04-15T03:31:35;18.17;;;13.93;;
75435;SDS011;64014;53.432;14.534;2023-04-15T03:34:01;20.88;;;15.05;;
75435;SDS011;64014;53.432;14.534;2023-04-15T03:36:28;21.85;;;15.98;;
75435;SDS011;64014;53.432;14.534;2023-04-15T03:38:56;20.77;;;15.25;;
75435;SDS011;64014;53.432;14.534;2023-04-15T03:41:22;22.85;;;15.68;;
75435;SDS011;64014;53.432;14.534;2023-04-15T03:43:49;19.33;;;14.38;;
75435;SDS011;64014;53.432;14.534;2023-04-15T03:46:18;16.73;;;12.60;;
75435;SDS011;64014;53.432;14.534;2023-04-15T03:48:44;17.70;;;11.88;;
75435;SDS011;64014;53.432;14.534;2023-04-15T03:51:10;16.55;;;13.30;;
75435;SDS011;64014;53.432;14.534;2023-04-15T03:53:36;17.70;;;12.52;;
75435;SDS011;64014;53.432;14.534;2023-04-15T03:56:02;17.92;;;12.63;;
75435;SDS011;64014;53.432;14.534;2023-04-15T03:58:28;19.60;;;12.98;;
75435;SDS011;64014;53.432;14.534;2023-04-15T04:00:55;20.38;;;14.00;;
75435;SDS011;64014;53.432;14.534;2023-04-15T04:03:21;17.60;;;13.10;;
75435;SDS011;64014;53.432;14.534;2023-04-15T04:05:47;20.15;;;13.88;;
75435;SDS011;64014;53.432;14.534;2023-04-15T04:08:14;19.08;;;12.18;;
75435;SDS011;64014;53.432;14.534;2023-04-15T04:10:40;17.50;;;12.85;;
75435;SDS011;64014;53.432;14.534;2023-04-15T04:13:07;20.67;;;12.80;;
75435;SDS011;64014;53.432;14.534;2023-04-15T04:15:33;20.30;;;13.65;;
75435;SDS011;64014;53.432;14.534;2023-04-15T04:17:59;19.30;;;13.85;;
75435;SDS011;64014;53.432;14.534;2023-04-15T04:20:25;18.33;;;13.00;;
75435;SDS011;64014;53.432;14.534;2023-04-15T04:22:51;19.05;;;13.57;;
75435;SDS011;64014;53.432;14.534;2023-04-15T04:25:18;18.38;;;12.70;;
75435;SDS011;64014;53.432;14.534;2023-04-15T04:27:44;19.63;;;14.10;;
75435;SDS011;64014;53.432;14.534;2023-04-15T04:30:10;20.00;;;13.32;;
75435;SDS011;64014;53.432;14.534;2023-04-15T04:32:36;18.73;;;13.15;;
75435;SDS011;64014;53.432;14.534;2023-04-15T04:35:03;22.25;;;14.95;;
75435;SDS011;64014;53.432;14.534;2023-04-15T04:37:29;19.33;;;13.15;;
75435;SDS011;64014;53.432;14.534;2023-04-15T04:39:55;20.60;;;15.13;;
75435;SDS011;64014;53.432;14.534;2023-04-15T04:42:21;18.02;;;12.52;;
75435;SDS011;64014;53.432;14.534;2023-04-15T04:44:48;20.63;;;14.48;;
75435;SDS011;64014;53.432;14.534;2023-04-15T04:47:14;19.73;;;11.90;;
75435;SDS011;64014;53.432;14.534;2023-04-15T04:49:40;20.75;;;13.43;;
75435;SDS011;64014;53.432;14.534;2023-04-15T04:52:06;19.88;;;14.27;;
75435;SDS011;64014;53.432;14.534;2023-04-15T04:54:32;19.02;;;13.48;;
75435;SDS011;64014;53.432;14.534;2023-04-15T04:56:59;19.55;;;14.50;;
75435;SDS011;64014;53.432;14.534;2023-04-15T04:59:25;21.42;;;14.13;;
75435;SDS011;64014;53.432;14.534;2023-04-15T05:01:52;21.67;;;17.02;;
75435;SDS011;64014;53.432;14.534;2023-04-15T05:04:18;18.35;;;13.57;;
75435;SDS011;64014;53.432;14.534;2023-04-15T05:06:44;18.95;;;14.82;;
75435;SDS011;64014;53.432;14.534;2023-04-15T05:09:10;21.88;;;14.30;;
75435;SDS011;64014;53.432;14.534;2023-04-15T05:11:36;18.63;;;11.73;;
75435;SDS011;64014;53.432;14.534;2023-04-15T05:14:03;20.67;;;14.40;;
75435;SDS011;64014;53.432;14.534;2023-04-15T05:16:29;21.70;;;15.05;;
75435;SDS011;64014;53.432;14.534;2023-04-15T05:18:55;22.35;;;16.35;;
75435;SDS011;64014;53.432;14.534;2023-04-15T05:21:21;20.77;;;15.10;;
75435;SDS011;64014;53.432;14.534;2023-04-15T05:23:48;25.30;;;17.98;;
75435;SDS011;64014;53.432;14.534;2023-04-15T05:26:20;28.80;;;20.30;;
75435;SDS011;64014;53.432;14.534;2023-04-15T05:28:48;25.80;;;19.48;;
75435;SDS011;64014;53.432;14.534;2023-04-15T05:31:14;25.63;;;16.30;;
75435;SDS011;64014;53.432;14.534;2023-04-15T05:33:41;25.15;;;18.27;;
75435;SDS011;64014;53.432;14.534;2023-04-15T05:36:07;25.65;;;18.50;;
75435;SDS011;64014;53.432;14.534;2023-04-15T05:38:34;23.73;;;17.67;;
75435;SDS011;64014;53.432;14.534;2023-04-15T05:41:00;21.83;;;17.00;;
75435;SDS011;64014;53.432;14.534;2023-04-15T05:43:26;20.38;;;15.63;;
75435;SDS011;64014;53.432;14.534;2023-04-15T05:45:52;20.45;;;15.52;;
75435;SDS011;64014;53.432;14.534;2023-04-15T05:48:18;20.50;;;15.13;;
75435;SDS011;64014;53.432;14.534;2023-04-15T05:50:44;22.33;;;15.90;;
75435;SDS011;64014;53.432;14.534;2023-04-15T05:53:11;20.30;;;15.73;;
75435;SDS011;64014;53.432;14.534;2023-04-15T05:55:37;20.45;;;16.20;;
75435;SDS011;64014;53.432;14.534;2023-04-15T05:58:03;22.95;;;17.83;;
75435;SDS011;64014;53.432;14.534;2023-04-15T06:00:29;26.00;;;16.05;;
75435;SDS011;64014;53.432;14.534;2023-04-15T06:02:56;29.08;;;16.55;;
75435;SDS011;64014;53.432;14.534;2023-04-15T06:05:23;23.90;;;14.55;;
75435;SDS011;64014;53.432;14.534;2023-04-15T06:07:49;26.67;;;16.25;;
75435;SDS011;64014;53.432;14.534;2023-04-15T06:10:15;23.98;;;16.05;;
75435;SDS011;64014;53.432;14.534;2023-04-15T06:12:41;21.52;;;14.75;;
75435;SDS011;64014;53.432;14.534;2023-04-15T06:15:07;23.05;;;14.75;;
75435;SDS011;64014;53.432;14.534;2023-04-15T06:17:34;22.27;;;12.63;;
75435;SDS011;64014;53.432;14.534;2023-04-15T06:20:01;20.75;;;14.57;;
75435;SDS011;64014;53.432;14.534;2023-04-15T06:22:27;21.15;;;16.58;;
75435;SDS011;64014;53.432;14.534;2023-04-15T06:24:53;19.65;;;13.88;;
75435;SDS011;64014;53.432;14.534;2023-04-15T06:27:20;18.30;;;12.20;;
75435;SDS011;64014;53.432;14.534;2023-04-15T06:29:47;17.88;;;15.55;;
75435;SDS011;64014;53.432;14.534;2023-04-15T06:32:13;19.92;;;14.82;;
75435;SDS011;64014;53.432;14.534;2023-04-15T06:34:39;20.45;;;13.35;;
75435;SDS011;64014;53.432;14.534;2023-04-15T06:37:05;18.00;;;12.90;;
75435;SDS011;64014;53.432;14.534;2023-04-15T06:39:34;16.52;;;12.65;;
75435;SDS011;64014;53.432;14.534;2023-04-15T06:42:00;17.80;;;14.88;;
75435;SDS011;64014;53.432;14.534;2023-04-15T06:44:28;21.02;;;13.48;;
75435;SDS011;64014;53.432;14.534;2023-04-15T06:46:54;20.15;;;15.25;;
75435;SDS011;64014;53.432;14.534;2023-04-15T06:49:20;21.25;;;16.17;;
75435;SDS011;64014;53.432;14.534;2023-04-15T06:51:46;25.08;;;18.83;;
75435;SDS011;64014;53.432;14.534;2023-04-15T06:54:13;19.67;;;15.55;;
75435;SDS011;64014;53.432;14.534;2023-04-15T06:56:39;24.20;;;17.10;;
75435;SDS011;64014;53.432;14.534;2023-04-15T06:59:05;21.30;;;17.05;;
75435;SDS011;64014;53.432;14.534;2023-04-15T07:01:32;20.42;;;14.48;;
75435;SDS011;64014;53.432;14.534;2023-04-15T07:03:58;21.25;;;15.80;;
75435;SDS011;64014;53.432;14.534;2023-04-15T07:06:25;22.77;;;14.73;;
75435;SDS011;64014;53.432;14.534;2023-04-15T07:08:51;20.10;;;14.63;;
75435;SDS011;64014;53.432;14.534;2023-04-15T07:11:18;18.75;;;14.07;;
75435;SDS011;64014;53.432;14.534;2023-04-15T07:13:45;20.13;;;13.95;;
75435;SDS011;64014;53.432;14.534;2023-04-15T07:16:11;19.00;;;14.50;;
75435;SDS011;64014;53.432;14.534;2023-04-15T07:18:37;21.67;;;16.88;;
75435;SDS011;64014;53.432;14.534;2023-04-15T07:21:04;18.65;;;14.85;;
75435;SDS011;64014;53.432;14.534;2023-04-15T07:23:30;24.75;;;14.43;;
75435;SDS011;64014;53.432;14.534;2023-04-15T07:25:56;16.35;;;12.55;;
75435;SDS011;64014;53.432;14.534;2023-04-15T07:28:22;16.20;;;14.45;;
75435;SDS011;64014;53.432;14.534;2023-04-15T07:30:48;17.10;;;12.00;;
75435;SDS011;64014;53.432;14.534;2023-04-15T07:33:15;15.18;;;12.65;;
75435;SDS011;64014;53.432;14.534;2023-04-15T07:35:41;14.98;;;12.85;;
75435;SDS011;64014;53.432;14.534;2023-04-15T07:38:07;19.73;;;12.18;;
75435;SDS011;64014;53.432;14.534;2023-04-15T07:40:33;16.50;;;12.50;;
75435;SDS011;64014;53.432;14.534;2023-04-15T07:43:00;16.15;;;12.07;;
75435;SDS011;64014;53.432;14.534;2023-04-15T07:45:26;16.42;;;12.50;;
75435;SDS011;64014;53.432;14.534;2023-04-15T07:47:52;13.95;;;9.15;;
75435;SDS011;64014;53.432;14.534;2023-04-15T07:50:20;15.68;;;10.85;;
75435;SDS011;64014;53.432;14.534;2023-04-15T07:52:47;17.17;;;14.43;;
75435;SDS011;64014;53.432;14.534;2023-04-15T07:55:13;17.85;;;13.23;;
75435;SDS011;64014;53.432;14.534;2023-04-15T07:57:43;17.77;;;14.07;;
75435;SDS011;64014;53.432;14.534;2023-04-15T08:00:11;18.50;;;13.95;;
75435;SDS011;64014;53.432;14.534;2023-04-15T08:02:38;18.70;;;12.52;;
75435;SDS011;64014;53.432;14.534;2023-04-15T08:05:04;22.40;;;13.77;;
75435;SDS011;64014;53.432;14.534;2023-04-15T08:07:31;18.60;;;12.63;;
75435;SDS011;64014;53.432;14.534;2023-04-15T08:09:58;18.67;;;12.73;;
75435;SDS011;64014;53.432;14.534;2023-04-15T08:12:24;15.88;;;13.30;;
75435;SDS011;64014;53.432;14.534;2023-04-15T08:14:51;14.25;;;12.63;;
75435;SDS011;64014;53.432;14.534;2023-04-15T08:17:17;15.23;;;13.15;;
75435;SDS011;64014;53.432;14.534;2023-04-15T08:19:44;17.45;;;14.05;;
75435;SDS011;64014;53.432;14.534;2023-04-15T08:22:12;19.52;;;13.35;;
75435;SDS011;64014;53.432;14.534;2023-04-15T08:24:38;15.85;;;12.23;;
75435;SDS011;64014;53.432;14.534;2023-04-15T08:27:05;18.20;;;14.13;;
75435;SDS011;64014;53.432;14.534;2023-04-15T08:29:32;18.45;;;13.32;;
75435;SDS011;64014;53.432;14.534;2023-04-15T08:31:58;15.98;;;12.50;;
75435;SDS011;64014;53.432;14.534;2023-04-15T08:34:25;20.15;;;15.10;;
75435;SDS011;64014;53.432;14.534;2023-04-15T08:36:52;20.10;;;14.73;;
75435;SDS011;64014;53.432;14.534;2023-04-15T08:39:18;19.17;;;15.48;;
75435;SDS011;64014;53.432;14.534;2023-04-15T08:41:46;20.73;;;14.88;;
75435;SDS011;64014;53.432;14.534;2023-04-15T08:44:13;17.50;;;13.15;;
75435;SDS011;64014;53.432;14.534;2023-04-15T08:46:40;18.60;;;13.35;;
75435;SDS011;64014;53.432;14.534;2023-04-15T08:49:09;18.83;;;14.05;;
75435;SDS011;64014;53.432;14.534;2023-04-15T08:51:38;20.92;;;13.98;;
75435;SDS011;64014;53.432;14.534;2023-04-15T08:54:05;20.27;;;15.77;;
75435;SDS011;64014;53.432;14.534;2023-04-15T08:56:32;22.17;;;16.42;;
75435;SDS011;64014;53.432;14.534;2023-04-15T08:58:59;22.90;;;15.63;;
75435;SDS011;64014;53.432;14.534;2023-04-15T09:01:25;20.73;;;15.75;;
75435;SDS011;64014;53.432;14.534;2023-04-15T09:03:52;25.35;;;17.70;;
75435;SDS011;64014;53.432;14.534;2023-04-15T09:06:19;35.33;;;26.67;;
75435;SDS011;64014;53.432;14.534;2023-04-15T09:08:46;21.30;;;16.45;;
75435;SDS011;64014;53.432;14.534;2023-04-15T09:11:12;17.70;;;12.13;;
75435;SDS011;64014;53.432;14.534;2023-04-15T09:13:38;22.92;;;13.68;;
75435;SDS011;64014;53.432;14.534;2023-04-15T09:16:05;18.58;;;11.38;;
75435;SDS011;64014;53.432;14.534;2023-04-15T09:18:33;18.80;;;12.32;;
75435;SDS011;64014;53.432;14.534;2023-04-15T09:21:12;21.83;;;13.88;;
75435;SDS011;64014;53.432;14.534;2023-04-15T09:23:40;22.10;;;15.90;;
75435;SDS011;64014;53.432;14.534;2023-04-15T09:26:06;18.63;;;13.55;;
75435;SDS011;64014;53.432;14.534;2023-04-15T09:28:33;18.95;;;13.38;;
75435;SDS011;64014;53.432;14.534;2023-04-15T09:31:05;20.00;;;15.52;;
75435;SDS011;64014;53.432;14.534;2023-04-15T09:33:32;22.27;;;15.82;;
75435;SDS011;64014;53.432;14.534;2023-04-15T09:36:02;20.33;;;16.08;;
75435;SDS011;64014;53.432;14.534;2023-04-15T09:38:29;18.92;;;14.40;;
75435;SDS011;64014;53.432;14.534;2023-04-15T09:40:56;18.75;;;14.00;;
75435;SDS011;64014;53.432;14.534;2023-04-15T09:43:36;14.98;;;13.05;;
75435;SDS011;64014;53.432;14.534;2023-04-15T09:46:03;21.42;;;16.02;;
75435;SDS011;64014;53.432;14.534;2023-04-15T09:48:29;20.13;;;14.55;;
75435;SDS011;64014;53.432;14.534;2023-04-15T09:50:59;17.23;;;12.90;;
75435;SDS011;64014;53.432;14.534;2023-04-15T09:53:26;19.13;;;13.18;;
75435;SDS011;64014;53.432;14.534;2023-04-15T09:55:53;16.98;;;14.52;;
75435;SDS011;64014;53.432;14.534;2023-04-15T09:58:26;15.25;;;11.55;;
75435;SDS011;64014;53.432;14.534;2023-04-15T10:00:54;18.52;;;13.90;;
75435;SDS011;64014;53.432;14.534;2023-04-15T10:03:38;16.15;;;13.98;;
75435;SDS011;64014;53.432;14.534;2023-04-15T10:06:06;22.42;;;14.40;;
75435;SDS011;64014;53.432;14.534;2023-04-15T10:08:33;16.77;;;13.70;;
75435;SDS011;64014;53.432;14.534;2023-04-15T10:11:02;19.15;;;12.80;;
75435;SDS011;64014;53.432;14.534;2023-04-15T10:13:29;14.25;;;11.93;;
75435;SDS011;64014;53.432;14.534;2023-04-15T10:16:10;16.88;;;12.40;;
75435;SDS011;64014;53.432;14.534;2023-04-15T10:18:37;19.08;;;11.95;;
75435;SDS011;64014;53.432;14.534;2023-04-15T10:21:05;17.23;;;12.95;;
75435;SDS011;64014;53.432;14.534;2023-04-15T10:23:33;18.33;;;13.35;;
75435;SDS011;64014;53.432;14.534;2023-04-15T10:26:00;20.13;;;12.65;;
75435;SDS011;64014;53.432;14.534;2023-04-15T10:28:26;37.05;;;25.52;;
75435;SDS011;64014;53.432;14.534;2023-04-15T10:30:52;26.35;;;14.82;;
75435;SDS011;64014;53.432;14.534;2023-04-15T10:33:20;19.10;;;12.35;;
75435;SDS011;64014;53.432;14.534;2023-04-15T10:35:47;15.68;;;11.52;;
75435;SDS011;64014;53.432;14.534;2023-04-15T10:38:31;17.52;;;13.15;;
75435;SDS011;64014;53.432;14.534;2023-04-15T10:43:52;22.70;;;9.63;;
75435;SDS011;64014;53.432;14.534;2023-04-15T10:46:22;16.65;;;12.30;;
75435;SDS011;64014;53.432;14.534;2023-04-15T10:48:50;17.65;;;13.45;;
75435;SDS011;64014;53.432;14.534;2023-04-15T10:51:25;16.90;;;11.68;;
75435;SDS011;64014;53.432;14.534;2023-04-15T10:53:54;14.48;;;11.90;;
75435;SDS011;64014;53.432;14.534;2023-04-15T10:56:21;17.08;;;13.25;;
75435;SDS011;64014;53.432;14.534;2023-04-15T10:58:48;17.52;;;12.32;;
75435;SDS011;64014;53.432;14.534;2023-04-15T11:01:14;14.55;;;12.20;;
75435;SDS011;64014;53.432;14.534;2023-04-15T11:03:41;13.60;;;11.27;;
75435;SDS011;64014;53.432;14.534;2023-04-15T11:06:08;20.15;;;10.52;;
75435;SDS011;64014;53.432;14.534;2023-04-15T11:08:54;16.20;;;11.27;;
75435;SDS011;64014;53.432;14.534;2023-04-15T11:11:20;17.27;;;12.18;;
75435;SDS011;64014;53.432;14.534;2023-04-15T11:13:50;44.78;;;27.52;;
75435;SDS011;64014;53.432;14.534;2023-04-15T11:16:16;15.77;;;11.80;;
75435;SDS011;64014;53.432;14.534;2023-04-15T11:18:52;15.80;;;10.65;;
75435;SDS011;64014;53.432;14.534;2023-04-15T11:21:18;14.70;;;11.63;;
75435;SDS011;64014;53.432;14.534;2023-04-15T11:23:44;15.68;;;11.65;;
75435;SDS011;64014;53.432;14.534;2023-04-15T11:26:11;17.90;;;11.93;;
75435;SDS011;64014;53.432;14.534;2023-04-15T11:28:41;20.33;;;13.13;;
75435;SDS011;64014;53.432;14.534;2023-04-15T11:31:12;18.88;;;12.27;;
75435;SDS011;64014;53.432;14.534;2023-04-15T11:36:22;17.63;;;13.10;;
75435;SDS011;64014;53.432;14.534;2023-04-15T11:38:51;16.40;;;11.90;;
75435;SDS011;64014;53.432;14.534;2023-04-15T11:41:20;18.00;;;13.27;;
75435;SDS011;64014;53.432;14.534;2023-04-15T11:43:47;16.05;;;10.60;;
75435;SDS011;64014;53.432;14.534;2023-04-15T11:46:13;14.18;;;10.88;;
75435;SDS011;64014;53.432;14.534;2023-04-15T11:48:44;12.90;;;10.50;;
75435;SDS011;64014;53.432;14.534;2023-04-15T11:51:10;15.18;;;10.55;;
75435;SDS011;64014;53.432;14.534;2023-04-15T11:53:44;15.07;;;11.23;;
75435;SDS011;64014;53.432;14.534;2023-04-15T11:56:15;13.93;;;11.40;;
75435;SDS011;64014;53.432;14.534;2023-04-15T11:58:42;13.73;;;10.98;;
75435;SDS011;64014;53.432;14.534;2023-04-15T12:01:10;15.68;;;11.23;;
75435;SDS011;64014;53.432;14.534;2023-04-15T12:03:41;14.77;;;10.35;;
75435;SDS011;64014;53.432;14.534;2023-04-15T12:06:09;15.18;;;12.13;;
75435;SDS011;64014;53.432;14.534;2023-04-15T12:13:55;14.90;;;10.25;;
75435;SDS011;64014;53.432;14.534;2023-04-15T12:16:21;15.45;;;11.95;;
75435;SDS011;64014;53.432;14.534;2023-04-15T12:18:52;15.63;;;10.05;;
75435;SDS011;64014;53.432;14.534;2023-04-15T12:21:22;13.00;;;10.80;;
75435;SDS011;64014;53.432;14.534;2023-04-15T12:23:49;13.32;;;11.93;;
75435;SDS011;64014;53.432;14.534;2023-04-15T12:26:16;12.80;;;10.07;;
75435;SDS011;64014;53.432;14.534;2023-04-15T12:28:43;12.77;;;9.40;;
75435;SDS011;64014;53.432;14.534;2023-04-15T12:31:09;11.52;;;8.80;;
75435;SDS011;64014;53.432;14.534;2023-04-15T12:33:37;12.00;;;9.35;;
75435;SDS011;64014;53.432;14.534;2023-04-15T12:36:04;14.85;;;9.95;;
75435;SDS011;64014;53.432;14.534;2023-04-15T12:38:30;12.23;;;10.93;;
75435;SDS011;64014;53.432;14.534;2023-04-15T12:40:59;13.55;;;10.00;;
75435;SDS011;64014;53.432;14.534;2023-04-15T12:43:25;12.23;;;9.50;;
75435;SDS011;64014;53.432;14.534;2023-04-15T12:45:51;11.60;;;8.98;;
75435;SDS011;64014;53.432;14.534;2023-04-15T12:48:17;10.38;;;8.63;;
75435;SDS011;64014;53.432;14.534;2023-04-15T12:50:44;9.98;;;8.85;;
75435;SDS011;64014;53.432;14.534;2023-04-15T12:53:10;14.13;;;9.18;;
75435;SDS011;64014;53.432;14.534;2023-04-15T12:55:37;9.82;;;8.82;;
75435;SDS011;64014;53.432;14.534;2023-04-15T12:58:03;12.63;;;8.85;;
75435;SDS011;64014;53.432;14.534;2023-04-15T13:00:29;9.55;;;6.40;;
75435;SDS011;64014;53.432;14.534;2023-04-15T13:02:55;9.57;;;8.25;;
75435;SDS011;64014;53.432;14.534;2023-04-15T13:05:21;9.95;;;8.40;;
75435;SDS011;64014;53.432;14.534;2023-04-15T13:07:47;9.77;;;8.68;;
75435;SDS011;64014;53.432;14.534;2023-04-15T13:10:13;9.20;;;8.02;;
75435;SDS011;64014;53.432;14.534;2023-04-15T13:12:40;9.73;;;8.05;;
75435;SDS011;64014;53.432;14.534;2023-04-15T13:15:06;11.88;;;5.95;;
75435;SDS011;64014;53.432;14.534;2023-04-15T13:17:35;10.23;;;8.95;;
75435;SDS011;64014;53.432;14.534;2023-04-15T13:20:02;10.35;;;7.80;;
75435;SDS011;64014;53.432;14.534;2023-04-15T13:22:28;8.73;;;7.53;;
75435;SDS011;64014;53.432;14.534;2023-04-15T13:24:54;10.63;;;7.95;;
75435;SDS011;64014;53.432;14.534;2023-04-15T13:27:21;10.65;;;8.05;;
75435;SDS011;64014;53.432;14.534;2023-04-15T13:29:47;12.07;;;9.00;;
75435;SDS011;64014;53.432;14.534;2023-04-15T13:32:13;14.60;;;9.60;;
75435;SDS011;64014;53.432;14.534;2023-04-15T13:34:39;12.82;;;9.32;;
75435;SDS011;64014;53.432;14.534;2023-04-15T13:37:06;12.85;;;9.02;;
75435;SDS011;64014;53.432;14.534;2023-04-15T13:39:32;11.50;;;9.23;;
75435;SDS011;64014;53.432;14.534;2023-04-15T13:41:59;11.50;;;8.20;;
75435;SDS011;64014;53.432;14.534;2023-04-15T13:44:25;10.70;;;8.05;;
75435;SDS011;64014;53.432;14.534;2023-04-15T13:46:51;10.45;;;9.27;;
75435;SDS011;64014;53.432;14.534;2023-04-15T13:49:17;10.15;;;8.40;;
75435;SDS011;64014;53.432;14.534;2023-04-15T13:51:43;11.52;;;8.00;;
75435;SDS011;64014;53.432;14.534;2023-04-15T13:54:10;10.90;;;6.97;;
75435;SDS011;64014;53.432;14.534;2023-04-15T13:56:36;10.40;;;8.98;;
75435;SDS011;64014;53.432;14.534;2023-04-15T13:59:02;9.90;;;7.72;;
75435;SDS011;64014;53.432;14.534;2023-04-15T14:01:30;10.00;;;7.38;;
75435;SDS011;64014;53.432;14.534;2023-04-15T14:03:56;11.07;;;9.20;;
75435;SDS011;64014;53.432;14.534;2023-04-15T14:06:23;10.98;;;8.20;;
75435;SDS011;64014;53.432;14.534;2023-04-15T14:08:50;13.27;;;9.00;;
75435;SDS011;64014;53.432;14.534;2023-04-15T14:11:16;11.18;;;8.25;;
75435;SDS011;64014;53.432;14.534;2023-04-15T14:13:42;9.77;;;8.00;;
75435;SDS011;64014;53.432;14.534;2023-04-15T14:16:08;11.63;;;9.32;;
75435;SDS011;64014;53.432;14.534;2023-04-15T14:18:35;9.18;;;7.22;;
75435;SDS011;64014;53.432;14.534;2023-04-15T14:21:01;8.98;;;7.20;;
75435;SDS011;64014;53.432;14.534;2023-04-15T14:23:27;10.75;;;8.50;;